sensor_id;sensor_type;location;lat;lon;timestamp;pressure;altitude;pressure_sealevel;temperature;humidity
11487;BME280;10510;47.942;9.442;2023-05-14T00:01:38;94497.06;;;8.45;100.00
11487;BME280;10510;47.942;9.442;2023-05-14T00:03:39;94502.63;;;8.41;100.00
11487;BME280;10510;47.942;9.442;2023-05-14T00:05:40;94504.56;;;8.39;100.00
11487;BME280;10510;47.942;9.442;2023-05-14T00:07:40;94490.25;;;8.35;100.00
11487;BME280;10510;47.942;9.442;2023-05-14T00:09:40;94493.19;;;8.32;100.00
11487;BME280;10510;47.942;9.442;2023-05-14T00:11:40;94484.09;;;8.28;100.00
11487;BME280;10510;47.942;9.442;2023-05-14T00:13:41;94493.88;;;8.26;100.00
11487;BME280;10510;47.942;9.442;2023-05-14T00:15:41;94489.84;;;8.24;100.00
11487;BME280;10510;47.942;9.442;2023-05-14T00:17:41;94485.94;;;8.19;100.00
11487;BME280;10510;47.942;9.442;2023-05-14T00:19:41;94486.94;;;8.18;100.00
11487;BME280;10510;47.942;9.442;2023-05-14T00:21:42;94486.63;;;8.13;100.00
11487;BME280;10510;47.942;9.442;2023-05-14T00:23:42;94479.97;;;8.11;100.00
11487;BME280;10510;47.942;9.442;2023-05-14T00:25:42;94475.91;;;8.08;100.00
11487;BME280;10510;47.942;9.442;2023-05-14T00:27:43;94484.53;;;8.09;100.00
11487;BME280;10510;47.942;9.442;2023-05-14T00:29:43;94477.72;;;8.08;100.00
11487;BME280;10510;47.942;9.442;2023-05-14T00:31:44;94481.94;;;8.09;100.00
11487;BME280;10510;47.942;9.442;2023-05-14T00:33:45;94475.09;;;8.08;100.00
11487;BME280;10510;47.942;9.442;2023-05-14T00:35:45;94475.09;;;8.08;100.00
11487;BME280;10510;47.942;9.442;2023-05-14T00:37:45;94473.50;;;8.07;100.00
11487;BME280;10510;47.942;9.442;2023-05-14T00:39:46;94478.06;;;8.05;100.00
11487;BME280;10510;47.942;9.442;2023-05-14T00:41:46;94479.22;;;8.02;100.00
11487;BME280;10510;47.942;9.442;2023-05-14T00:43:46;94486.41;;;8.00;100.00
11487;BME280;10510;47.942;9.442;2023-05-14T00:45:53;94474.34;;;7.99;100.00
11487;BME280;10510;47.942;9.442;2023-05-14T00:47:54;94474.34;;;7.99;100.00
11487;BME280;10510;47.942;9.442;2023-05-14T00:49:54;94479.56;;;7.99;100.00
11487;BME280;10510;47.942;9.442;2023-05-14T00:51:55;94480.53;;;7.98;100.00
11487;BME280;10510;47.942;9.442;2023-05-14T00:54:00;94475.34;;;7.98;100.00
11487;BME280;10510;47.942;9.442;2023-05-14T00:56:01;94479.72;;;7.97;100.00
11487;BME280;10510;47.942;9.442;2023-05-14T00:58:04;94478.59;;;8.00;100.00
11487;BME280;10510;47.942;9.442;2023-05-14T01:00:07;94472.38;;;8.01;100.00
11487;BME280;10510;47.942;9.442;2023-05-14T01:02:07;94477.06;;;8.06;100.00
11487;BME280;10510;47.942;9.442;2023-05-14T01:04:09;94473.97;;;8.10;100.00
11487;BME280;10510;47.942;9.442;2023-05-14T01:06:22;94470.03;;;8.14;100.00
11487;BME280;10510;47.942;9.442;2023-05-14T01:11:14;94470.28;;;8.28;100.00
11487;BME280;10510;47.942;9.442;2023-05-14T01:13:29;94467.78;;;8.34;100.00
11487;BME280;10510;47.942;9.442;2023-05-14T01:15:33;94464.69;;;8.39;100.00
11487;BME280;10510;47.942;9.442;2023-05-14T01:17:40;94459.75;;;8.44;100.00
11487;BME280;10510;47.942;9.442;2023-05-14T01:19:43;94464.47;;;8.49;100.00
11487;BME280;10510;47.942;9.442;2023-05-14T01:21:44;94461.34;;;8.53;100.00
11487;BME280;10510;47.942;9.442;2023-05-14T01:23:44;94459.00;;;8.58;100.00
11487;BME280;10510;47.942;9.442;2023-05-14T01:25:45;94459.50;;;8.62;100.00
11487;BME280;10510;47.942;9.442;2023-05-14T01:27:57;94458.13;;;8.66;100.00
11487;BME280;10510;47.942;9.442;2023-05-14T01:32:07;94462.47;;;8.74;100.00
11487;BME280;10510;47.942;9.442;2023-05-14T01:34:10;94462.94;;;8.77;100.00
11487;BME280;10510;47.942;9.442;2023-05-14T01:36:11;94462.75;;;8.79;100.00
11487;BME280;10510;47.942;9.442;2023-05-14T01:38:14;94463.22;;;8.82;100.00
11487;BME280;10510;47.942;9.442;2023-05-14T01:40:17;94463.03;;;8.84;100.00
11487;BME280;10510;47.942;9.442;2023-05-14T01:42:17;94463.47;;;8.87;100.00
11487;BME280;10510;47.942;9.442;2023-05-14T01:44:18;94456.13;;;8.91;100.00
11487;BME280;10510;47.942;9.442;2023-05-14T01:46:19;94456.75;;;8.93;100.00
11487;BME280;10510;47.942;9.442;2023-05-14T01:48:19;94459.00;;;8.96;100.00
11487;BME280;10510;47.942;9.442;2023-05-14T01:50:20;94454.44;;;8.98;100.00
11487;BME280;10510;47.942;9.442;2023-05-14T01:52:20;94458.50;;;9.01;100.00
11487;BME280;10510;47.942;9.442;2023-05-14T01:54:21;94454.72;;;9.03;100.00
11487;BME280;10510;47.942;9.442;2023-05-14T01:56:22;94452.91;;;9.04;100.00
11487;BME280;10510;47.942;9.442;2023-05-14T01:58:22;94454.38;;;9.06;100.00
11487;BME280;10510;47.942;9.442;2023-05-14T02:00:23;94451.41;;;9.09;100.00
11487;BME280;10510;47.942;9.442;2023-05-14T02:02:26;94452.00;;;9.12;100.00
11487;BME280;10510;47.942;9.442;2023-05-14T02:04:27;94448.44;;;9.13;100.00
11487;BME280;10510;47.942;9.442;2023-05-14T02:06:27;94440.25;;;9.16;100.00
11487;BME280;10510;47.942;9.442;2023-05-14T02:08:27;94436.66;;;9.17;100.00
11487;BME280;10510;47.942;9.442;2023-05-14T02:10:28;94440.91;;;9.18;100.00
11487;BME280;10510;47.942;9.442;2023-05-14T02:12:28;94436.28;;;9.20;100.00
11487;BME280;10510;47.942;9.442;2023-05-14T02:14:28;94444.91;;;9.20;100.00
11487;BME280;10510;47.942;9.442;2023-05-14T02:16:28;94435.31;;;9.21;100.00
11487;BME280;10510;47.942;9.442;2023-05-14T02:18:29;94433.97;;;9.25;100.00
11487;BME280;10510;47.942;9.442;2023-05-14T02:20:29;94438.00;;;9.27;100.00
11487;BME280;10510;47.942;9.442;2023-05-14T02:22:29;94435.19;;;9.29;100.00
11487;BME280;10510;47.942;9.442;2023-05-14T02:24:30;94440.06;;;9.32;100.00
11487;BME280;10510;47.942;9.442;2023-05-14T02:26:30;94436.47;;;9.33;100.00
11487;BME280;10510;47.942;9.442;2023-05-14T02:28:30;94438.91;;;9.35;100.00
11487;BME280;10510;47.942;9.442;2023-05-14T02:30:30;94433.50;;;9.36;100.00
11487;BME280;10510;47.942;9.442;2023-05-14T02:32:31;94430.91;;;9.36;100.00
11487;BME280;10510;47.942;9.442;2023-05-14T02:34:31;94435.13;;;9.37;100.00
11487;BME280;10510;47.942;9.442;2023-05-14T02:36:33;94432.50;;;9.37;100.00
11487;BME280;10510;47.942;9.442;2023-05-14T02:38:33;94434.13;;;9.38;100.00
11487;BME280;10510;47.942;9.442;2023-05-14T02:40:35;94434.94;;;9.39;100.00
11487;BME280;10510;47.942;9.442;2023-05-14T02:42:35;94429.75;;;9.39;100.00
11487;BME280;10510;47.942;9.442;2023-05-14T02:44:36;94428.91;;;9.38;100.00
11487;BME280;10510;47.942;9.442;2023-05-14T02:46:36;94429.91;;;9.37;100.00
11487;BME280;10510;47.942;9.442;2023-05-14T02:48:36;94425.31;;;9.39;100.00
11487;BME280;10510;47.942;9.442;2023-05-14T02:50:37;94430.53;;;9.39;100.00
11487;BME280;10510;47.942;9.442;2023-05-14T02:52:37;94420.75;;;9.41;100.00
11487;BME280;10510;47.942;9.442;2023-05-14T02:54:37;94422.72;;;9.39;100.00
11487;BME280;10510;47.942;9.442;2023-05-14T02:56:37;94423.53;;;9.40;100.00
11487;BME280;10510;47.942;9.442;2023-05-14T02:58:38;94414.69;;;9.41;100.00
11487;BME280;10510;47.942;9.442;2023-05-14T03:00:38;94424.16;;;9.42;100.00
11487;BME280;10510;47.942;9.442;2023-05-14T03:02:38;94414.69;;;9.41;100.00
11487;BME280;10510;47.942;9.442;2023-05-14T03:04:38;94420.75;;;9.41;100.00
11487;BME280;10510;47.942;9.442;2023-05-14T03:06:39;94427.56;;;9.42;100.00
11487;BME280;10510;47.942;9.442;2023-05-14T03:08:39;94417.94;;;9.43;100.00
11487;BME280;10510;47.942;9.442;2023-05-14T03:10:40;94424.16;;;9.42;100.00
11487;BME280;10510;47.942;9.442;2023-05-14T03:12:41;94415.53;;;9.41;100.00
11487;BME280;10510;47.942;9.442;2023-05-14T03:14:41;94418.13;;;9.41;100.00
11487;BME280;10510;47.942;9.442;2023-05-14T03:16:41;94423.34;;;9.41;100.00
11487;BME280;10510;47.942;9.442;2023-05-14T03:18:41;94417.31;;;9.41;100.00
11487;BME280;10510;47.942;9.442;2023-05-14T03:20:42;94417.94;;;9.43;100.00
11487;BME280;10510;47.942;9.442;2023-05-14T03:22:42;94416.13;;;9.43;100.00
11487;BME280;10510;47.942;9.442;2023-05-14T03:24:42;94407.50;;;9.43;100.00
11487;BME280;10510;47.942;9.442;2023-05-14T03:26:42;94416.13;;;9.43;100.00
11487;BME280;10510;47.942;9.442;2023-05-14T03:28:43;94410.75;;;9.45;100.00
11487;BME280;10510;47.942;9.442;2023-05-14T03:30:43;94411.56;;;9.45;100.00
11487;BME280;10510;47.942;9.442;2023-05-14T03:32:44;94407.16;;;9.46;100.00
11487;BME280;10510;47.942;9.442;2023-05-14T03:34:44;94405.53;;;9.45;100.00
11487;BME280;10510;47.942;9.442;2023-05-14T03:36:44;94412.56;;;9.44;100.00
11487;BME280;10510;47.942;9.442;2023-05-14T03:38:45;94416.13;;;9.43;100.00
11487;BME280;10510;47.942;9.442;2023-05-14T03:40:45;94417.13;;;9.42;100.00
11487;BME280;10510;47.942;9.442;2023-05-14T03:42:45;94412.91;;;9.41;100.00
11487;BME280;10510;47.942;9.442;2023-05-14T03:44:45;94412.91;;;9.41;100.00
11487;BME280;10510;47.942;9.442;2023-05-14T03:46:46;94418.13;;;9.41;100.00
11487;BME280;10510;47.942;9.442;2023-05-14T03:48:46;94418.75;;;9.43;100.00
11487;BME280;10510;47.942;9.442;2023-05-14T03:50:47;94417.13;;;9.42;100.00
11487;BME280;10510;47.942;9.442;2023-05-14T03:52:47;94410.91;;;9.43;100.00
11487;BME280;10510;47.942;9.442;2023-05-14T03:54:48;94410.13;;;9.43;100.00
11487;BME280;10510;47.942;9.442;2023-05-14T03:56:48;94414.34;;;9.44;100.00
11487;BME280;10510;47.942;9.442;2023-05-14T03:58:48;94417.78;;;9.44;100.00
11487;BME280;10510;47.942;9.442;2023-05-14T04:00:48;94419.75;;;9.42;100.00
11487;BME280;10510;47.942;9.442;2023-05-14T04:02:49;94418.13;;;9.41;100.00
11487;BME280;10510;47.942;9.442;2023-05-14T04:04:49;94416.34;;;9.42;100.00
11487;BME280;10510;47.942;9.442;2023-05-14T04:06:49;94418.75;;;9.43;100.00
11487;BME280;10510;47.942;9.442;2023-05-14T04:08:50;94424.75;;;9.44;100.00
11487;BME280;10510;47.942;9.442;2023-05-14T04:10:50;94419.75;;;9.42;100.00
11487;BME280;10510;47.942;9.442;2023-05-14T04:12:50;94419.91;;;9.41;100.00
11487;BME280;10510;47.942;9.442;2023-05-14T04:14:51;94421.91;;;9.39;100.00
11487;BME280;10510;47.942;9.442;2023-05-14T04:16:51;94417.50;;;9.39;100.00
11487;BME280;10510;47.942;9.442;2023-05-14T04:18:51;94418.47;;;9.38;100.00
11487;BME280;10510;47.942;9.442;2023-05-14T04:20:52;94412.44;;;9.38;100.00
11487;BME280;10510;47.942;9.442;2023-05-14T04:22:52;94413.25;;;9.38;100.00
11487;BME280;10510;47.942;9.442;2023-05-14T04:24:53;94412.28;;;9.39;100.00
11487;BME280;10510;47.942;9.442;2023-05-14T04:26:53;94417.31;;;9.41;100.00
11487;BME280;10510;47.942;9.442;2023-05-14T04:28:53;94411.91;;;9.42;100.00
11487;BME280;10510;47.942;9.442;2023-05-14T04:30:53;94415.34;;;9.43;100.00
11487;BME280;10510;47.942;9.442;2023-05-14T04:32:54;94412.72;;;9.43;100.00
11487;BME280;10510;47.942;9.442;2023-05-14T04:34:54;94410.13;;;9.43;100.00
11487;BME280;10510;47.942;9.442;2023-05-14T04:36:55;94416.78;;;9.45;100.00
11487;BME280;10510;47.942;9.442;2023-05-14T04:38:55;94417.78;;;9.44;100.00
11487;BME280;10510;47.942;9.442;2023-05-14T04:40:56;94408.16;;;9.45;100.00
11487;BME280;10510;47.942;9.442;2023-05-14T04:42:56;94401.94;;;9.46;100.00
11487;BME280;10510;47.942;9.442;2023-05-14T04:44:56;94407.94;;;9.46;100.00
11487;BME280;10510;47.942;9.442;2023-05-14T04:46:57;94408.75;;;9.47;100.00
11487;BME280;10510;47.942;9.442;2023-05-14T04:48:58;94412.63;;;9.51;100.00
11487;BME280;10510;47.942;9.442;2023-05-14T04:50:58;94409.81;;;9.52;100.00
11487;BME280;10510;47.942;9.442;2023-05-14T04:52:58;94411.81;;;9.50;100.00
11487;BME280;10510;47.942;9.442;2023-05-14T04:54:58;94406.63;;;9.50;100.00
11487;BME280;10510;47.942;9.442;2023-05-14T04:56:59;94409.03;;;9.52;100.00
11487;BME280;10510;47.942;9.442;2023-05-14T04:59:02;94405.25;;;9.54;100.00
11487;BME280;10510;47.942;9.442;2023-05-14T05:01:03;94411.09;;;9.57;100.00
11487;BME280;10510;47.942;9.442;2023-05-14T05:03:04;94408.50;;;9.57;100.00
11487;BME280;10510;47.942;9.442;2023-05-14T05:05:05;94408.28;;;9.58;100.00
11487;BME280;10510;47.942;9.442;2023-05-14T05:07:05;94407.84;;;9.54;100.00
11487;BME280;10510;47.942;9.442;2023-05-14T05:09:05;94408.50;;;9.57;100.00
11487;BME280;10510;47.942;9.442;2023-05-14T05:11:07;94414.31;;;9.59;100.00
11487;BME280;10510;47.942;9.442;2023-05-14T05:13:07;94405.50;;;9.60;100.00
11487;BME280;10510;47.942;9.442;2023-05-14T05:15:08;94405.50;;;9.60;100.00
11487;BME280;10510;47.942;9.442;2023-05-14T05:17:08;94405.50;;;9.60;100.00
11487;BME280;10510;47.942;9.442;2023-05-14T05:19:09;94401.09;;;9.60;100.00
11487;BME280;10510;47.942;9.442;2023-05-14T05:21:09;94409.38;;;9.64;100.00
11487;BME280;10510;47.942;9.442;2023-05-14T05:23:09;94407.56;;;9.64;100.00
11487;BME280;10510;47.942;9.442;2023-05-14T05:25:10;94402.97;;;9.66;100.00
11487;BME280;10510;47.942;9.442;2023-05-14T05:27:11;94419.44;;;9.67;100.00
11487;BME280;10510;47.942;9.442;2023-05-14T05:29:12;94415.22;;;9.66;100.00
11487;BME280;10510;47.942;9.442;2023-05-14T05:31:12;94405.41;;;9.68;100.00
11487;BME280;10510;47.942;9.442;2023-05-14T05:33:12;94405.78;;;9.65;100.00
11487;BME280;10510;47.942;9.442;2023-05-14T05:35:13;94409.00;;;9.67;100.00
11487;BME280;10510;47.942;9.442;2023-05-14T05:37:13;94409.19;;;9.65;100.00
11487;BME280;10510;47.942;9.442;2023-05-14T05:39:13;94405.59;;;9.66;100.00
11487;BME280;10510;47.942;9.442;2023-05-14T05:41:14;94407.03;;;9.69;100.00
11487;BME280;10510;47.942;9.442;2023-05-14T05:43:14;94418.91;;;9.71;100.00
11487;BME280;10510;47.942;9.442;2023-05-14T05:45:14;94417.09;;;9.72;100.00
11487;BME280;10510;47.942;9.442;2023-05-14T05:47:15;94408.25;;;9.73;100.00
11487;BME280;10510;47.942;9.442;2023-05-14T05:49:16;94417.72;;;9.74;100.00
11487;BME280;10510;47.942;9.442;2023-05-14T05:51:16;94410.88;;;9.73;100.00
11487;BME280;10510;47.942;9.442;2023-05-14T05:53:16;94418.69;;;9.73;100.00
11487;BME280;10510;47.942;9.442;2023-05-14T05:55:17;94412.88;;;9.71;100.00
11487;BME280;10510;47.942;9.442;2023-05-14T05:57:18;94416.91;;;9.73;100.00
11487;BME280;10510;47.942;9.442;2023-05-14T05:59:18;94412.16;;;9.77;100.00
11487;BME280;10510;47.942;9.442;2023-05-14T06:01:18;94411.13;;;9.78;100.00
11487;BME280;10510;47.942;9.442;2023-05-14T06:03:19;94408.16;;;9.81;100.00
11487;BME280;10510;47.942;9.442;2023-05-14T06:05:19;94411.78;;;9.80;100.00
11487;BME280;10510;47.942;9.442;2023-05-14T06:07:19;94414.03;;;9.83;100.00
11487;BME280;10510;47.942;9.442;2023-05-14T06:09:20;94413.00;;;9.84;100.00
11487;BME280;10510;47.942;9.442;2023-05-14T06:11:20;94405.00;;;9.86;100.00
11487;BME280;10510;47.942;9.442;2023-05-14T06:13:20;94413.91;;;9.91;100.00
11487;BME280;10510;47.942;9.442;2023-05-14T06:15:21;94411.31;;;9.91;100.00
11487;BME280;10510;47.942;9.442;2023-05-14T06:17:22;94418.13;;;9.92;100.00
11487;BME280;10510;47.942;9.442;2023-05-14T06:19:22;94415.94;;;9.96;100.00
11487;BME280;10510;47.942;9.442;2023-05-14T06:21:22;94416.38;;;9.99;100.00
11487;BME280;10510;47.942;9.442;2023-05-14T06:23:22;94423.69;;;10.04;100.00
11487;BME280;10510;47.942;9.442;2023-05-14T06:25:23;94418.03;;;10.00;100.00
11487;BME280;10510;47.942;9.442;2023-05-14T06:27:23;94417.22;;;10.00;100.00
11487;BME280;10510;47.942;9.442;2023-05-14T06:29:24;94418.41;;;9.97;100.00
11487;BME280;10510;47.942;9.442;2023-05-14T06:31:24;94423.78;;;9.96;100.00
11487;BME280;10510;47.942;9.442;2023-05-14T06:33:25;94424.59;;;9.96;100.00
11487;BME280;10510;47.942;9.442;2023-05-14T06:35:31;94412.34;;;9.97;100.00
11487;BME280;10510;47.942;9.442;2023-05-14T06:37:31;94421.97;;;9.96;100.00
11487;BME280;10510;47.942;9.442;2023-05-14T06:39:31;94422.19;;;9.95;100.00
11487;BME280;10510;47.942;9.442;2023-05-14T06:41:32;94421.97;;;9.96;100.00
11487;BME280;10510;47.942;9.442;2023-05-14T06:43:32;94421.00;;;9.97;100.00
11487;BME280;10510;47.942;9.442;2023-05-14T06:45:32;94419.19;;;9.98;100.00
11487;BME280;10510;47.942;9.442;2023-05-14T06:47:32;94417.22;;;10.00;100.00
11487;BME280;10510;47.942;9.442;2023-05-14T06:49:33;94414.84;;;10.05;100.00
11487;BME280;10510;47.942;9.442;2023-05-14T06:51:34;94421.69;;;10.06;100.00
11487;BME280;10510;47.942;9.442;2023-05-14T06:53:34;94418.50;;;10.11;100.00
11487;BME280;10510;47.942;9.442;2023-05-14T06:55:34;94413.19;;;10.19;100.00
11487;BME280;10510;47.942;9.442;2023-05-14T06:57:35;94414.25;;;10.24;100.00
11487;BME280;10510;47.942;9.442;2023-05-14T06:59:35;94419.56;;;10.31;100.00
11487;BME280;10510;47.942;9.442;2023-05-14T07:01:35;94419.19;;;10.34;100.00
11487;BME280;10510;47.942;9.442;2023-05-14T07:03:36;94415.00;;;10.40;100.00
11487;BME280;10510;47.942;9.442;2023-05-14T07:05:36;94416.44;;;10.42;100.00
11487;BME280;10510;47.942;9.442;2023-05-14T07:07:36;94417.50;;;10.48;100.00
11487;BME280;10510;47.942;9.442;2023-05-14T07:09:37;94417.31;;;10.50;100.00
11487;BME280;10510;47.942;9.442;2023-05-14T07:11:37;94419.53;;;10.53;100.00
11487;BME280;10510;47.942;9.442;2023-05-14T07:13:38;94412.53;;;10.53;100.00
11487;BME280;10510;47.942;9.442;2023-05-14T07:15:38;94421.41;;;10.59;100.00
11487;BME280;10510;47.942;9.442;2023-05-14T07:17:39;94422.44;;;10.64;100.00
11487;BME280;10510;47.942;9.442;2023-05-14T07:19:40;94417.31;;;10.71;100.00
11487;BME280;10510;47.942;9.442;2023-05-14T07:21:40;94414.53;;;10.79;100.00
11487;BME280;10510;47.942;9.442;2023-05-14T07:23:40;94415.41;;;10.86;100.00
11487;BME280;10510;47.942;9.442;2023-05-14T07:25:40;94409.78;;;10.89;100.00
11487;BME280;10510;47.942;9.442;2023-05-14T07:27:41;94410.84;;;10.95;100.00
11487;BME280;10510;47.942;9.442;2023-05-14T07:29:41;94412.06;;;10.99;100.00
11487;BME280;10510;47.942;9.442;2023-05-14T07:31:42;94409.44;;;10.99;100.00
11487;BME280;10510;47.942;9.442;2023-05-14T07:33:42;94404.03;;;11.01;100.00
11487;BME280;10510;47.942;9.442;2023-05-14T07:35:42;94407.25;;;11.03;100.00
11487;BME280;10510;47.942;9.442;2023-05-14T07:37:43;94407.44;;;11.01;100.00
11487;BME280;10510;47.942;9.442;2023-05-14T07:39:43;94409.47;;;11.06;100.00
11487;BME280;10510;47.942;9.442;2023-05-14T07:41:43;94410.09;;;11.08;100.00
11487;BME280;10510;47.942;9.442;2023-05-14T07:43:43;94410.09;;;11.08;100.00
11487;BME280;10510;47.942;9.442;2023-05-14T07:45:44;94411.34;;;11.12;100.00
11487;BME280;10510;47.942;9.442;2023-05-14T07:47:44;94408.13;;;11.10;100.00
11487;BME280;10510;47.942;9.442;2023-05-14T07:49:44;94407.09;;;11.11;100.00
11487;BME280;10510;47.942;9.442;2023-05-14T07:51:45;94408.91;;;11.10;100.00
11487;BME280;10510;47.942;9.442;2023-05-14T07:53:45;94408.75;;;11.12;100.00
11487;BME280;10510;47.942;9.442;2023-05-14T07:55:45;94403.50;;;11.12;100.00
11487;BME280;10510;47.942;9.442;2023-05-14T07:57:47;94406.94;;;11.12;100.00
11487;BME280;10510;47.942;9.442;2023-05-14T07:59:47;94408.53;;;11.13;100.00
11487;BME280;10510;47.942;9.442;2023-05-14T08:01:48;94407.34;;;11.16;100.00
11487;BME280;10510;47.942;9.442;2023-05-14T08:03:48;94406.72;;;11.14;100.00
11487;BME280;10510;47.942;9.442;2023-05-14T08:05:48;94402.13;;;11.16;100.00
11487;BME280;10510;47.942;9.442;2023-05-14T08:07:49;94406.56;;;11.22;100.00
11487;BME280;10510;47.942;9.442;2023-05-14T08:09:49;94405.19;;;11.26;100.00
11487;BME280;10510;47.942;9.442;2023-05-14T08:11:49;94406.66;;;11.35;100.00
11487;BME280;10510;47.942;9.442;2023-05-14T08:13:49;94406.88;;;11.41;100.00
11487;BME280;10510;47.942;9.442;2023-05-14T08:15:50;94408.28;;;11.43;100.00
11487;BME280;10510;47.942;9.442;2023-05-14T08:17:50;94399.03;;;11.41;100.00
11487;BME280;10510;47.942;9.442;2023-05-14T08:19:51;94403.84;;;11.37;100.00
11487;BME280;10510;47.942;9.442;2023-05-14T08:21:51;94397.22;;;11.41;100.00
11487;BME280;10510;47.942;9.442;2023-05-14T08:23:52;94410.94;;;11.50;100.00
11487;BME280;10510;47.942;9.442;2023-05-14T08:25:52;94397.28;;;11.54;100.00
11487;BME280;10510;47.942;9.442;2023-05-14T08:27:52;94403.72;;;11.58;100.00
11487;BME280;10510;47.942;9.442;2023-05-14T08:29:53;94402.16;;;11.64;100.00
11487;BME280;10510;47.942;9.442;2023-05-14T08:31:53;94399.91;;;11.61;100.00
11487;BME280;10510;47.942;9.442;2023-05-14T08:33:53;94404.31;;;11.54;100.00
11487;BME280;10510;47.942;9.442;2023-05-14T08:35:54;94399.50;;;11.51;100.00
11487;BME280;10510;47.942;9.442;2023-05-14T08:37:55;94409.16;;;11.50;100.00
11487;BME280;10510;47.942;9.442;2023-05-14T08:39:56;94408.75;;;11.53;100.00
11487;BME280;10510;47.942;9.442;2023-05-14T08:41:57;94405.31;;;11.53;100.00
11487;BME280;10510;47.942;9.442;2023-05-14T08:44:13;94406.72;;;11.49;100.00
11487;BME280;10510;47.942;9.442;2023-05-14T08:46:15;94413.94;;;11.47;100.00
11487;BME280;10510;47.942;9.442;2023-05-14T08:48:18;94404.69;;;11.44;100.00
11487;BME280;10510;47.942;9.442;2023-05-14T08:50:19;94405.09;;;11.48;100.00
11487;BME280;10510;47.942;9.442;2023-05-14T08:52:21;94400.06;;;11.53;100.00
11487;BME280;10510;47.942;9.442;2023-05-14T08:54:22;94404.56;;;11.59;100.00
11487;BME280;10510;47.942;9.442;2023-05-14T08:56:24;94395.09;;;11.65;100.00
11487;BME280;10510;47.942;9.442;2023-05-14T08:58:25;94392.72;;;11.76;100.00
11487;BME280;10510;47.942;9.442;2023-05-14T09:00:27;94389.63;;;11.94;100.00
11487;BME280;10510;47.942;9.442;2023-05-14T09:02:29;94393.06;;;12.08;100.00
11487;BME280;10510;47.942;9.442;2023-05-14T09:04:31;94382.41;;;12.16;100.00
11487;BME280;10510;47.942;9.442;2023-05-14T09:06:31;94390.06;;;12.24;100.00
11487;BME280;10510;47.942;9.442;2023-05-14T09:08:32;94383.03;;;12.32;100.00
11487;BME280;10510;47.942;9.442;2023-05-14T09:10:33;94385.28;;;12.41;100.00
11487;BME280;10510;47.942;9.442;2023-05-14T09:12:34;94386.06;;;12.42;100.00
11487;BME280;10510;47.942;9.442;2023-05-14T09:14:34;94385.25;;;12.35;100.00
11487;BME280;10510;47.942;9.442;2023-05-14T09:16:34;94385.22;;;12.21;100.00
11487;BME280;10510;47.942;9.442;2023-05-14T09:18:36;94385.63;;;12.18;100.00
11487;BME280;10510;47.942;9.442;2023-05-14T09:20:37;94377.75;;;12.12;100.00
11487;BME280;10510;47.942;9.442;2023-05-14T09:22:37;94389.44;;;12.09;100.00
11487;BME280;10510;47.942;9.442;2023-05-14T09:24:39;94378.75;;;12.11;100.00
11487;BME280;10510;47.942;9.442;2023-05-14T09:26:39;94385.59;;;12.12;100.00
11487;BME280;10510;47.942;9.442;2023-05-14T09:28:40;94382.41;;;12.16;100.00
11487;BME280;10510;47.942;9.442;2023-05-14T09:30:49;94377.56;;;12.20;100.00
11487;BME280;10510;47.942;9.442;2023-05-14T09:32:52;94379.19;;;12.27;100.00
11487;BME280;10510;47.942;9.442;2023-05-14T09:34:53;94379.81;;;12.36;100.00
11487;BME280;10510;47.942;9.442;2023-05-14T09:38:55;94376.59;;;12.54;100.00
11487;BME280;10510;47.942;9.442;2023-05-14T09:40:56;94376.81;;;12.59;100.00
11487;BME280;10510;47.942;9.442;2023-05-14T09:42:57;94373.97;;;12.67;100.00
11487;BME280;10510;47.942;9.442;2023-05-14T09:44:57;94373.56;;;12.84;100.00
11487;BME280;10510;47.942;9.442;2023-05-14T09:46:58;94372.72;;;12.96;100.00
11487;BME280;10510;47.942;9.442;2023-05-14T09:48:58;94365.44;;;13.05;100.00
11487;BME280;10510;47.942;9.442;2023-05-14T09:50:59;94362.63;;;13.07;100.00
11487;BME280;10510;47.942;9.442;2023-05-14T09:52:59;94362.66;;;13.00;100.00
11487;BME280;10510;47.942;9.442;2023-05-14T09:55:00;94360.00;;;13.07;100.00
11487;BME280;10510;47.942;9.442;2023-05-14T09:57:00;94352.53;;;13.10;100.00
11487;BME280;10510;47.942;9.442;2023-05-14T09:59:01;94359.00;;;13.08;100.00
11487;BME280;10510;47.942;9.442;2023-05-14T10:01:02;94360.63;;;13.09;100.00
11487;BME280;10510;47.942;9.442;2023-05-14T10:03:05;94360.00;;;13.13;100.00
11487;BME280;10510;47.942;9.442;2023-05-14T10:05:06;94358.56;;;13.17;100.00
11487;BME280;10510;47.942;9.442;2023-05-14T10:07:07;94358.75;;;13.29;100.00
11487;BME280;10510;47.942;9.442;2023-05-14T10:09:12;94351.88;;;13.35;100.00
11487;BME280;10510;47.942;9.442;2023-05-14T10:11:18;94357.94;;;13.42;100.00
11487;BME280;10510;47.942;9.442;2023-05-14T10:13:23;94360.72;;;13.54;100.00
11487;BME280;10510;47.942;9.442;2023-05-14T10:15:52;94357.06;;;13.55;100.00
11487;BME280;10510;47.942;9.442;2023-05-14T10:17:57;94353.63;;;13.54;100.00
11487;BME280;10510;47.942;9.442;2023-05-14T10:19:59;94356.06;;;13.49;100.00
11487;BME280;10510;47.942;9.442;2023-05-14T10:22:04;94349.88;;;13.37;100.00
11487;BME280;10510;47.942;9.442;2023-05-14T10:24:06;94354.34;;;13.30;100.00
11487;BME280;10510;47.942;9.442;2023-05-14T10:26:07;94355.34;;;13.29;100.00
11487;BME280;10510;47.942;9.442;2023-05-14T10:28:09;94356.13;;;13.23;100.00
11487;BME280;10510;47.942;9.442;2023-05-14T10:30:10;94350.53;;;13.12;100.00
11487;BME280;10510;47.942;9.442;2023-05-14T10:32:13;94353.75;;;13.01;100.00
11487;BME280;10510;47.942;9.442;2023-05-14T10:34:41;94355.97;;;12.91;100.00
11487;BME280;10510;47.942;9.442;2023-05-14T10:36:44;94353.38;;;12.91;100.00
11487;BME280;10510;47.942;9.442;2023-05-14T10:38:45;94357.41;;;12.87;100.00
11487;BME280;10510;47.942;9.442;2023-05-14T10:40:46;94359.03;;;12.81;100.00
11487;BME280;10510;47.942;9.442;2023-05-14T10:42:47;94358.41;;;12.79;100.00
11487;BME280;10510;47.942;9.442;2023-05-14T10:44:56;94358.81;;;12.76;100.00